createdAt,value
2019-05-20T00:00:00.358Z,5.85
2019-05-20T00:02:32.505Z,6.12
2019-05-20T00:05:05.362Z,6.75
2019-05-20T00:07:37.868Z,5.47
2019-05-20T00:10:14.333Z,5.80
2019-05-20T00:12:47.272Z,5.62
2019-05-20T00:15:20.033Z,5.37
2019-05-20T00:17:52.435Z,5.45
2019-05-20T00:20:24.810Z,5.45
2019-05-20T00:22:58.961Z,5.70
2019-05-20T00:25:32.242Z,6.22
2019-05-20T00:30:36.767Z,5.80
2019-05-20T00:33:09.375Z,6.97
2019-05-20T00:35:41.836Z,5.87
2019-05-20T00:38:14.471Z,6.65
2019-05-20T00:40:46.892Z,6.53
2019-05-20T00:43:19.915Z,6.95
2019-05-20T00:48:23.046Z,5.40
2019-05-20T00:50:56.135Z,6.05
2019-05-20T00:56:00.127Z,5.97
2019-05-20T00:58:32.662Z,6.35
2019-05-20T01:01:05.148Z,5.62
2019-05-20T01:03:37.459Z,6.85
2019-05-20T01:06:09.913Z,6.20
2019-05-20T01:08:42.336Z,5.80
2019-05-20T01:11:14.560Z,5.97
2019-05-20T01:13:47.151Z,6.12
2019-05-20T01:16:19.507Z,6.08
2019-05-20T01:18:51.679Z,6.62
2019-05-20T01:21:24.035Z,5.53
2019-05-20T01:23:57.007Z,5.80
2019-05-20T01:26:28.843Z,5.58
2019-05-20T01:29:01.780Z,6.03
2019-05-20T01:31:34.213Z,5.55
2019-05-20T01:34:06.304Z,5.25
2019-05-20T01:36:38.696Z,6.53
2019-05-20T01:39:11.505Z,5.33
2019-05-20T01:41:43.520Z,6.03
2019-05-20T01:44:16.309Z,6.50
2019-05-20T01:46:48.644Z,6.22
2019-05-20T01:49:21.452Z,5.75
2019-05-20T01:51:53.860Z,6.47
2019-05-20T01:54:26.211Z,5.80
2019-05-20T01:56:58.776Z,5.53
2019-05-20T01:59:31.543Z,5.90
2019-05-20T02:02:03.953Z,6.60
2019-05-20T02:04:37.081Z,6.78
2019-05-20T02:09:41.029Z,7.60
2019-05-20T02:14:49.856Z,5.65
2019-05-20T02:17:22.545Z,6.67
2019-05-20T02:19:55.435Z,5.60
2019-05-20T02:22:27.571Z,6.78
2019-05-20T02:24:59.761Z,6.97
2019-05-20T02:27:31.787Z,4.73
2019-05-20T02:30:05.030Z,6.97
2019-05-20T02:32:37.527Z,7.53
2019-05-20T02:35:10.609Z,7.43
2019-05-20T02:37:43.678Z,7.30
2019-05-20T02:40:16.284Z,6.62
2019-05-20T02:42:48.384Z,7.25
2019-05-20T02:45:21.403Z,6.60
2019-05-20T02:47:54.445Z,6.83
2019-05-20T02:50:26.968Z,7.50
2019-05-20T02:52:59.336Z,7.58
2019-05-20T02:55:32.327Z,7.42
2019-05-20T02:58:04.764Z,6.55
2019-05-20T03:00:37.169Z,7.78
2019-05-20T03:03:10.503Z,7.17
2019-05-20T03:05:43.299Z,7.40
2019-05-20T03:08:15.749Z,6.30
2019-05-20T03:10:48.368Z,6.83
2019-05-20T03:13:21.289Z,7.72
2019-05-20T03:15:53.854Z,6.92
2019-05-20T03:18:26.581Z,6.67
2019-05-20T03:20:59.840Z,6.95
2019-05-20T03:23:33.021Z,7.47
2019-05-20T03:26:05.342Z,6.80
2019-05-20T03:28:38.436Z,7.62
2019-05-20T03:33:41.580Z,5.15
2019-05-20T03:36:14.526Z,7.37
2019-05-20T03:38:47.356Z,6.42
2019-05-20T03:43:50.254Z,6.12
2019-05-20T03:46:23.020Z,6.28
2019-05-20T03:48:56.042Z,6.22
2019-05-20T03:51:28.971Z,7.22
2019-05-20T03:56:32.271Z,6.08
2019-05-20T03:59:04.909Z,6.25
2019-05-20T04:01:38.086Z,6.70
2019-05-20T04:04:11.083Z,6.85
2019-05-20T04:06:43.777Z,6.05
2019-05-20T04:09:16.456Z,5.97
2019-05-20T04:11:48.878Z,6.30
2019-05-20T04:14:21.407Z,5.78
2019-05-20T04:16:54.578Z,5.87
2019-05-20T04:19:27.354Z,5.95
2019-05-20T04:22:00.536Z,6.08
2019-05-20T04:24:33.704Z,6.40
2019-05-20T04:27:07.257Z,5.30
2019-05-20T04:29:40.411Z,6.08
2019-05-20T04:32:13.200Z,6.33
2019-05-20T04:34:45.287Z,5.87
2019-05-20T04:37:17.608Z,6.57
2019-05-20T04:39:50.430Z,6.33
2019-05-20T04:42:23.194Z,6.37
2019-05-20T04:44:55.353Z,5.75
2019-05-20T04:47:27.316Z,5.97
2019-05-20T04:49:59.394Z,6.67
2019-05-20T04:52:31.973Z,7.00
2019-05-20T04:55:04.423Z,6.85
2019-05-20T04:57:37.391Z,6.80
2019-05-20T05:00:09.906Z,6.55
2019-05-20T05:02:43.838Z,6.15
2019-05-20T05:05:17.754Z,6.05
2019-05-20T05:07:50.802Z,6.83
2019-05-20T05:10:22.934Z,6.92
2019-05-20T05:12:54.839Z,6.47
2019-05-20T05:15:26.727Z,6.70
2019-05-20T05:17:58.938Z,5.87
2019-05-20T05:20:31.221Z,6.33
2019-05-20T05:23:04.075Z,4.92
2019-05-20T05:25:36.107Z,5.37
2019-05-20T05:28:08.765Z,5.87
2019-05-20T05:30:41.710Z,6.20
2019-05-20T05:33:14.234Z,5.28
2019-05-20T05:35:53.367Z,5.97
2019-05-20T05:38:21.109Z,5.97
2019-05-20T05:40:53.746Z,5.83
2019-05-20T05:43:26.170Z,5.50
2019-05-20T05:45:58.868Z,5.72
2019-05-20T05:48:31.765Z,5.33
2019-05-20T05:51:04.839Z,4.37
2019-05-20T05:53:38.225Z,5.25
2019-05-20T05:58:42.485Z,5.12
2019-05-20T06:01:14.629Z,5.42
2019-05-20T06:03:47.091Z,4.43
2019-05-20T06:06:19.821Z,5.25
2019-05-20T06:08:52.162Z,5.17
2019-05-20T06:11:24.989Z,5.28
2019-05-20T06:13:56.850Z,5.95
2019-05-20T06:16:36.424Z,4.80
2019-05-20T06:19:03.288Z,5.60
2019-05-20T06:21:35.451Z,5.97
2019-05-20T06:24:08.001Z,5.47
2019-05-20T06:26:41.451Z,5.40
2019-05-20T06:29:14.020Z,5.97
2019-05-20T06:31:47.169Z,5.05
2019-05-20T06:34:20.357Z,5.80
2019-05-20T06:36:54.573Z,5.40
2019-05-20T06:39:28.200Z,5.05
2019-05-20T06:42:01.755Z,5.72
2019-05-20T06:44:34.393Z,5.70
2019-05-20T06:47:09.297Z,5.72
2019-05-20T06:49:42.404Z,5.22
2019-05-20T06:52:14.576Z,5.72
2019-05-20T06:54:48.095Z,5.53
2019-05-20T06:57:23.941Z,4.92
2019-05-20T06:59:56.087Z,5.58
2019-05-20T07:02:28.262Z,5.65
2019-05-20T07:05:01.284Z,4.70
2019-05-20T07:10:05.019Z,4.70
2019-05-20T07:12:41.257Z,5.45
2019-05-20T07:15:11.953Z,5.03
2019-05-20T07:17:45.642Z,5.35
2019-05-20T07:20:19.233Z,5.35
2019-05-20T07:22:56.138Z,5.70
2019-05-20T07:25:29.143Z,4.75
2019-05-20T07:28:06.637Z,5.03
2019-05-20T07:30:39.500Z,5.05
2019-05-20T07:33:12.056Z,5.30
2019-05-20T07:35:44.866Z,5.03
2019-05-20T07:38:17.507Z,4.53
2019-05-20T07:40:50.291Z,5.50
2019-05-20T07:43:23.083Z,5.35
2019-05-20T07:45:55.819Z,4.95
2019-05-20T07:48:28.108Z,4.53
2019-05-20T07:51:01.979Z,5.15
2019-05-20T07:53:35.418Z,4.78
2019-05-20T07:56:14.852Z,4.53
2019-05-20T07:58:53.215Z,5.45
2019-05-20T08:01:25.704Z,4.83
2019-05-20T08:03:57.884Z,5.28
2019-05-20T08:06:30.011Z,4.70
2019-05-20T08:09:02.253Z,4.92
2019-05-20T08:11:34.799Z,5.55
2019-05-20T08:14:17.134Z,4.62
2019-05-20T08:16:49.377Z,5.62
2019-05-20T08:19:23.153Z,5.00
2019-05-20T08:21:56.545Z,5.00
2019-05-20T08:24:28.624Z,5.43
2019-05-20T08:27:00.738Z,4.87
2019-05-20T08:29:33.061Z,4.95
2019-05-20T08:32:05.832Z,5.33
2019-05-20T08:34:39.220Z,4.70
2019-05-20T08:37:12.894Z,4.70
2019-05-20T08:39:45.944Z,5.70
2019-05-20T08:42:18.936Z,5.43
2019-05-20T08:44:52.305Z,5.27
2019-05-20T08:47:24.630Z,5.37
2019-05-20T08:49:58.267Z,5.87
2019-05-20T08:52:30.336Z,4.85
2019-05-20T08:55:02.855Z,5.53
2019-05-20T08:57:35.292Z,5.83
2019-05-20T09:00:09.423Z,4.92
2019-05-20T09:02:41.796Z,5.33
2019-05-20T09:05:14.940Z,5.42
2019-05-20T09:08:02.525Z,5.80
2019-05-20T09:10:23.908Z,6.10
2019-05-20T09:12:56.387Z,5.60
2019-05-20T09:15:29.210Z,5.75
2019-05-20T09:20:32.314Z,5.40
2019-05-20T09:23:04.742Z,5.70
2019-05-20T09:25:37.550Z,7.12
2019-05-20T09:30:41.271Z,5.97
2019-05-20T09:33:13.961Z,5.97
2019-05-20T09:35:45.878Z,6.00
2019-05-20T09:38:21.137Z,6.22
2019-05-20T09:40:52.465Z,6.37
2019-05-20T09:43:24.868Z,6.00
2019-05-20T09:46:07.564Z,6.45
2019-05-20T09:48:31.457Z,6.30
2019-05-20T09:51:04.213Z,6.50
2019-05-20T09:53:36.916Z,6.95
2019-05-20T09:56:09.741Z,7.25
2019-05-20T09:58:41.878Z,6.47
2019-05-20T10:01:14.269Z,6.35
2019-05-20T10:03:46.986Z,6.97
2019-05-20T10:06:19.799Z,7.03
2019-05-20T10:08:51.922Z,6.90
2019-05-20T10:11:24.383Z,6.75
2019-05-20T10:13:58.201Z,8.10
2019-05-20T10:16:30.665Z,6.78
2019-05-20T10:19:03.606Z,6.83
2019-05-20T10:24:07.633Z,7.75
2019-05-20T10:26:40.105Z,7.62
2019-05-20T10:29:13.119Z,6.67
2019-05-20T10:34:16.596Z,7.28
2019-05-20T10:36:48.965Z,7.40
2019-05-20T10:39:21.652Z,7.80
2019-05-20T10:41:54.883Z,8.05
2019-05-20T10:44:28.317Z,7.37
2019-05-20T10:47:01.118Z,8.38
2019-05-20T10:49:33.142Z,6.55
2019-05-20T10:52:05.792Z,8.33
2019-05-20T10:57:09.171Z,7.50
2019-05-20T11:02:12.579Z,6.65
2019-05-20T11:07:15.413Z,7.45
2019-05-20T11:09:47.958Z,7.50
2019-05-20T11:12:20.533Z,7.00
2019-05-20T11:14:53.229Z,5.95
2019-05-20T11:17:25.646Z,6.25
2019-05-20T11:19:58.449Z,6.37
2019-05-20T11:25:01.741Z,6.28
2019-05-20T11:27:34.796Z,5.60
2019-05-20T11:30:08.623Z,6.10
2019-05-20T11:32:41.283Z,6.90
2019-05-20T11:35:14.693Z,5.95
2019-05-20T11:37:50.750Z,5.57
2019-05-20T11:40:23.653Z,5.97
2019-05-20T11:45:26.455Z,5.87
2019-05-20T11:47:59.556Z,4.80
2019-05-20T11:50:32.038Z,5.90
2019-05-20T11:53:05.014Z,5.20
2019-05-20T11:55:37.131Z,5.20
2019-05-20T11:58:15.967Z,5.47
2019-05-20T12:00:43.868Z,4.80
2019-05-20T12:03:16.276Z,5.22
2019-05-20T12:05:50.461Z,5.00
2019-05-20T12:08:23.046Z,4.10
2019-05-20T12:10:57.444Z,4.83
2019-05-20T12:13:30.571Z,5.03
2019-05-20T12:16:03.320Z,5.43
2019-05-20T12:21:06.741Z,5.15
2019-05-20T12:23:39.862Z,5.47
2019-05-20T12:26:12.291Z,5.23
2019-05-20T12:28:45.075Z,4.55
2019-05-20T12:33:49.042Z,3.40
2019-05-20T12:36:22.272Z,5.07
2019-05-20T12:38:54.827Z,5.10
2019-05-20T12:41:26.976Z,4.33
2019-05-20T12:44:10.986Z,4.58
2019-05-20T12:46:34.451Z,5.75
2019-05-20T12:49:07.268Z,5.67
2019-05-20T12:51:40.219Z,5.67
2019-05-20T12:56:44.493Z,5.60
2019-05-20T12:59:17.097Z,5.80
2019-05-20T13:01:49.780Z,6.05
2019-05-20T13:06:54.925Z,5.95
2019-05-20T13:09:26.988Z,6.17
2019-05-20T13:11:59.451Z,5.83
2019-05-20T13:14:31.534Z,6.65
2019-05-20T13:17:04.796Z,7.10
2019-05-20T13:19:37.089Z,7.28
2019-05-20T13:22:09.734Z,7.47
2019-05-20T13:24:42.194Z,7.55
2019-05-20T13:27:14.507Z,7.47
2019-05-20T13:29:47.376Z,6.70
2019-05-20T13:32:20.125Z,7.70
2019-05-20T13:34:52.730Z,7.67
2019-05-20T13:37:25.090Z,8.33
2019-05-20T13:39:57.537Z,8.43
2019-05-20T13:42:30.128Z,8.43
2019-05-20T13:45:02.513Z,7.75
2019-05-20T13:47:35.393Z,8.43
2019-05-20T13:50:09.222Z,8.77
2019-05-20T13:52:42.207Z,8.57
2019-05-20T13:55:15.181Z,8.83
2019-05-20T13:57:47.491Z,8.93
2019-05-20T14:00:20.417Z,9.40
2019-05-20T14:02:52.804Z,9.50
2019-05-20T14:05:25.469Z,7.80
2019-05-20T14:07:58.202Z,8.78
2019-05-20T14:10:30.009Z,8.90
2019-05-20T14:13:02.688Z,8.63
2019-05-20T14:18:05.611Z,9.28
2019-05-20T14:20:38.014Z,9.25
2019-05-20T14:23:11.007Z,8.65
2019-05-20T14:25:43.705Z,8.98
2019-05-20T14:28:15.856Z,7.62
2019-05-20T14:30:48.587Z,9.33
2019-05-20T14:35:52.013Z,9.45
2019-05-20T14:38:24.108Z,9.00
2019-05-20T14:40:56.627Z,8.85
2019-05-20T14:43:28.752Z,7.87
2019-05-20T14:46:01.726Z,8.38
2019-05-20T14:48:34.556Z,6.90
2019-05-20T14:51:06.793Z,8.98
2019-05-20T14:53:39.576Z,9.60
2019-05-20T14:56:11.972Z,8.50
2019-05-20T14:58:44.864Z,8.18
2019-05-20T15:03:48.279Z,10.80
2019-05-20T15:06:20.356Z,9.33
2019-05-20T15:08:52.692Z,10.03
2019-05-20T15:11:37.560Z,9.40
2019-05-20T15:14:00.306Z,10.60
2019-05-20T15:16:33.109Z,9.33
2019-05-20T15:19:05.234Z,10.08
2019-05-20T15:21:39.291Z,10.65
2019-05-20T15:24:12.419Z,10.43
2019-05-20T15:26:44.290Z,10.75
2019-05-20T15:29:27.484Z,11.57
2019-05-20T15:31:51.490Z,6.87
2019-05-20T15:34:24.332Z,6.83
2019-05-20T15:39:27.417Z,7.22
2019-05-20T15:41:59.906Z,4.65
2019-05-20T15:44:33.014Z,5.42
2019-05-20T15:47:05.466Z,6.22
2019-05-20T15:49:37.842Z,4.12
2019-05-20T15:52:10.621Z,4.95
2019-05-20T15:54:44.439Z,4.90
2019-05-20T15:57:19.618Z,4.53
2019-05-20T15:59:52.388Z,5.15
2019-05-20T16:02:24.786Z,3.65
2019-05-20T16:04:57.999Z,5.53
2019-05-20T16:07:30.758Z,3.35
2019-05-20T16:10:03.865Z,3.17
2019-05-20T16:12:36.624Z,3.10
2019-05-20T16:15:10.239Z,4.05
2019-05-20T16:17:43.139Z,3.40
2019-05-20T16:20:16.785Z,2.98
2019-05-20T16:22:49.880Z,3.17
2019-05-20T16:25:22.813Z,3.08
2019-05-20T16:27:55.913Z,3.65
2019-05-20T16:30:28.112Z,3.10
2019-05-20T16:33:00.226Z,2.80
2019-05-20T16:35:33.490Z,2.83
2019-05-20T16:38:09.663Z,3.10
2019-05-20T16:40:42.520Z,3.20
2019-05-20T16:43:15.873Z,3.20
2019-05-20T16:45:48.985Z,2.87
2019-05-20T16:48:20.772Z,2.80
2019-05-20T16:50:52.958Z,2.70
2019-05-20T16:53:25.185Z,3.12
2019-05-20T16:55:58.339Z,3.22
2019-05-20T16:58:32.356Z,2.92
2019-05-20T17:01:08.759Z,2.40
2019-05-20T17:03:41.508Z,2.45
2019-05-20T17:06:13.984Z,3.22
2019-05-20T17:08:46.795Z,3.25
2019-05-20T17:11:19.084Z,2.92
2019-05-20T17:13:51.397Z,2.95
2019-05-20T17:16:24.246Z,2.80
2019-05-20T17:18:56.317Z,2.75
2019-05-20T17:21:28.694Z,2.83
2019-05-20T17:24:02.265Z,2.62
2019-05-20T17:26:35.026Z,2.70
2019-05-20T17:29:07.461Z,2.80
2019-05-20T17:31:41.983Z,2.87
2019-05-20T17:34:14.771Z,2.85
2019-05-20T17:36:47.352Z,3.60
2019-05-20T17:39:19.822Z,2.65
2019-05-20T17:41:52.557Z,2.65
2019-05-20T17:44:25.651Z,3.02
2019-05-20T17:49:29.050Z,2.45
2019-05-20T17:52:01.782Z,2.98
2019-05-20T17:54:34.644Z,2.72
2019-05-20T17:57:07.718Z,3.02
2019-05-20T18:02:12.871Z,2.42
2019-05-20T18:04:45.274Z,2.85
2019-05-20T18:07:17.308Z,2.83
2019-05-20T18:09:52.208Z,2.60
2019-05-20T18:12:25.455Z,2.83
2019-05-20T18:17:32.014Z,2.92
2019-05-20T18:20:05.253Z,2.52
2019-05-20T18:22:38.690Z,2.90
2019-05-20T18:25:12.693Z,2.90
2019-05-20T18:27:45.993Z,3.35
2019-05-20T18:32:49.407Z,2.27
2019-05-20T18:35:22.145Z,2.72
2019-05-20T18:37:55.198Z,2.25
2019-05-20T18:42:59.155Z,2.47
2019-05-20T18:45:32.338Z,2.92
2019-05-20T18:48:04.829Z,3.37
2019-05-20T18:50:37.505Z,3.25
2019-05-20T18:53:10.486Z,2.77
2019-05-20T18:55:42.607Z,2.58
2019-05-20T18:58:15.718Z,2.08
2019-05-20T19:00:48.782Z,3.10
2019-05-20T19:03:21.258Z,2.67
2019-05-20T19:05:55.055Z,2.15
2019-05-20T19:08:28.312Z,3.10
2019-05-20T19:13:32.075Z,3.65
2019-05-20T19:16:05.133Z,3.00
2019-05-20T19:21:09.332Z,3.00
2019-05-20T19:23:42.411Z,2.62
2019-05-20T19:26:24.387Z,3.02
2019-05-20T19:28:49.170Z,2.77
2019-05-20T19:31:22.722Z,2.95
2019-05-20T19:33:55.601Z,3.17
2019-05-20T19:36:28.133Z,2.05
2019-05-20T19:39:01.470Z,3.17
2019-05-20T19:41:34.650Z,3.40
2019-05-20T19:44:06.894Z,2.45
2019-05-20T19:46:40.033Z,3.42
2019-05-20T19:49:13.857Z,3.77
2019-05-20T19:51:46.551Z,4.08
2019-05-20T19:54:18.602Z,2.55
2019-05-20T19:56:51.952Z,3.72
2019-05-20T20:01:56.106Z,3.40
2019-05-20T20:07:00.748Z,3.77
2019-05-20T20:09:33.968Z,4.40
2019-05-20T20:12:06.392Z,2.70
2019-05-20T20:14:38.707Z,3.53
2019-05-20T20:17:11.745Z,3.98
2019-05-20T20:22:15.193Z,3.45
2019-05-20T20:24:48.051Z,3.30
2019-05-20T20:27:20.879Z,3.72
2019-05-20T20:29:53.665Z,4.10
2019-05-20T20:32:37.497Z,3.90
2019-05-20T20:35:01.906Z,4.03
2019-05-20T20:37:34.451Z,4.58
2019-05-20T20:40:06.856Z,3.67
2019-05-20T20:42:40.488Z,3.62
2019-05-20T20:45:14.048Z,3.42
2019-05-20T20:47:46.973Z,3.62
2019-05-20T20:50:19.303Z,2.85
2019-05-20T20:52:51.686Z,3.35
2019-05-20T20:55:24.048Z,4.00
2019-05-20T20:57:56.127Z,3.37
2019-05-20T21:00:28.842Z,3.07
2019-05-20T21:03:01.288Z,3.12
2019-05-20T21:05:33.750Z,2.83
2019-05-20T21:08:06.436Z,2.80
2019-05-20T21:10:38.452Z,3.12
2019-05-20T21:13:12.039Z,2.83
2019-05-20T21:15:45.113Z,3.20
2019-05-20T21:18:17.523Z,3.70
2019-05-20T21:20:49.754Z,3.27
2019-05-20T21:23:22.482Z,3.60
2019-05-20T21:25:54.866Z,3.08
2019-05-20T21:28:27.787Z,3.37
2019-05-20T21:31:00.326Z,3.05
2019-05-20T21:33:32.885Z,3.30
2019-05-20T21:36:06.017Z,2.70
2019-05-20T21:41:09.198Z,3.80
2019-05-20T21:43:41.348Z,3.00
2019-05-20T21:46:14.597Z,4.25
2019-05-20T21:48:46.875Z,2.72
2019-05-20T21:51:19.452Z,3.45
2019-05-20T21:53:51.539Z,3.42
2019-05-20T21:56:24.221Z,3.03
2019-05-20T22:01:29.238Z,3.53
2019-05-20T22:04:01.967Z,3.30
2019-05-20T22:06:34.166Z,3.35
2019-05-20T22:09:07.443Z,2.70
2019-05-20T22:11:40.203Z,3.33
2019-05-20T22:14:12.593Z,3.40
2019-05-20T22:16:45.070Z,4.08
2019-05-20T22:19:17.406Z,3.02
2019-05-20T22:22:08.832Z,3.62
2019-05-20T22:24:41.530Z,3.87
2019-05-20T22:27:14.855Z,3.75
2019-05-20T22:29:48.285Z,3.98
2019-05-20T22:32:21.619Z,3.95
2019-05-20T22:37:26.279Z,3.43
2019-05-20T22:39:58.760Z,2.87
2019-05-20T22:42:31.560Z,3.08
2019-05-20T22:45:04.135Z,2.70
2019-05-20T22:47:37.113Z,4.47
2019-05-20T22:50:09.674Z,3.85
2019-05-20T22:52:42.421Z,4.20
2019-05-20T22:55:14.831Z,3.92
2019-05-20T22:57:46.923Z,4.05
2019-05-20T23:00:19.907Z,4.30
2019-05-20T23:02:52.709Z,4.03
2019-05-20T23:05:25.721Z,4.50
2019-05-20T23:10:29.057Z,2.40
2019-05-20T23:13:02.203Z,4.28
2019-05-20T23:18:06.593Z,4.42
2019-05-20T23:20:39.467Z,4.05
2019-05-20T23:23:12.156Z,4.62
2019-05-20T23:25:45.023Z,4.22
2019-05-20T23:28:17.338Z,4.25
2019-05-20T23:30:50.679Z,2.80
2019-05-20T23:33:23.635Z,3.92
2019-05-20T23:35:56.237Z,4.08
2019-05-20T23:38:29.296Z,3.92
2019-05-20T23:43:33.177Z,4.12
2019-05-20T23:46:05.507Z,4.42
2019-05-20T23:48:38.187Z,3.83
2019-05-20T23:51:10.671Z,4.08
2019-05-20T23:53:43.340Z,4.42
2019-05-20T23:56:16.050Z,4.47
2019-05-20T23:58:48.527Z,4.75
